createdAt,value
2018-02-06T00:02:11.095Z,32.57
2018-02-06T00:04:38.621Z,36.00
2018-02-06T00:07:06.118Z,54.13
2018-02-06T00:09:34.403Z,33.00
2018-02-06T00:12:02.695Z,38.20
2018-02-06T00:14:30.200Z,39.60
2018-02-06T00:16:57.715Z,42.83
2018-02-06T00:19:25.982Z,38.80
2018-02-06T00:21:54.247Z,32.07
2018-02-06T00:24:21.744Z,31.63
2018-02-06T00:26:49.251Z,35.93
2018-02-06T00:29:16.771Z,38.17
2018-02-06T00:31:44.262Z,33.93
2018-02-06T00:34:11.788Z,37.60
2018-02-06T00:36:39.306Z,38.17
2018-02-06T00:39:07.578Z,35.90
2018-02-06T00:41:35.849Z,37.77
2018-02-06T00:44:03.334Z,38.50
2018-02-06T00:46:30.870Z,41.83
2018-02-06T00:48:58.361Z,39.40
2018-02-06T00:51:25.865Z,39.97
2018-02-06T00:53:53.393Z,42.17
2018-02-06T00:56:20.890Z,40.43
2018-02-06T00:58:48.398Z,43.53
2018-02-06T01:01:15.918Z,42.90
2018-02-06T01:03:43.438Z,42.10
2018-02-06T01:06:10.937Z,40.40
2018-02-06T01:08:39.197Z,43.00
2018-02-06T01:11:06.711Z,42.07
2018-02-06T01:13:34.230Z,45.40
2018-02-06T01:16:01.808Z,38.27
2018-02-06T01:18:29.258Z,39.10
2018-02-06T01:20:57.524Z,45.20
2018-02-06T01:23:25.792Z,37.70
2018-02-06T01:25:53.343Z,34.53
2018-02-06T01:28:20.850Z,35.00
2018-02-06T01:30:48.356Z,39.17
2018-02-06T01:33:15.865Z,34.27
2018-02-06T01:35:43.393Z,39.03
2018-02-06T01:38:11.657Z,38.33
2018-02-06T01:40:39.187Z,32.17
2018-02-06T01:43:06.692Z,38.97
2018-02-06T01:45:35.041Z,41.00
2018-02-06T01:48:03.087Z,38.80
2018-02-06T01:50:30.595Z,41.73
2018-02-06T01:52:58.122Z,32.97
2018-02-06T01:55:25.630Z,39.27
2018-02-06T01:57:53.913Z,37.60
2018-02-06T02:00:21.413Z,38.07
2018-02-06T02:02:48.943Z,39.57
2018-02-06T02:05:16.451Z,43.23
2018-02-06T02:07:43.936Z,39.83
2018-02-06T02:10:12.217Z,40.33
2018-02-06T02:12:40.492Z,35.40
2018-02-06T02:15:08.745Z,37.70
2018-02-06T02:17:37.013Z,34.87
2018-02-06T02:20:04.506Z,35.93
2018-02-06T02:22:32.773Z,32.07
2018-02-06T02:25:00.313Z,34.07
2018-02-06T02:27:27.828Z,38.60
2018-02-06T02:29:55.318Z,39.17
2018-02-06T02:32:22.851Z,41.97
2018-02-06T02:34:50.349Z,34.97
2018-02-06T02:37:17.866Z,36.90
2018-02-06T02:39:45.349Z,37.60
2018-02-06T04:40:22.459Z,52.67
2018-02-06T04:42:50.758Z,57.13
2018-02-06T04:45:18.316Z,58.53
2018-02-06T04:47:45.818Z,43.67
2018-02-06T04:50:13.315Z,45.43
2018-02-06T04:52:41.592Z,48.97
2018-02-06T04:55:09.852Z,47.20
2018-02-06T04:57:37.358Z,51.37
2018-02-06T05:00:04.867Z,51.30
2018-02-06T05:02:32.365Z,54.43
2018-02-06T05:04:59.868Z,51.53
2018-02-06T05:07:27.380Z,53.17
2018-02-06T05:09:54.873Z,51.50
2018-02-06T05:12:22.393Z,51.20
2018-02-06T05:14:49.933Z,53.50
2018-02-06T05:17:18.190Z,50.17
2018-02-06T05:19:45.692Z,51.90
2018-02-06T05:22:13.181Z,47.77
2018-02-06T05:24:40.709Z,53.23
2018-02-06T05:27:08.239Z,53.03
2018-02-06T05:29:36.529Z,50.40
2018-02-06T05:32:04.790Z,50.80
2018-02-06T05:34:32.296Z,49.73
2018-02-06T05:36:59.823Z,44.23
2018-02-06T05:39:28.136Z,50.40
2018-02-06T05:41:55.699Z,50.43
2018-02-06T05:44:23.262Z,50.03
2018-02-06T05:46:50.802Z,49.93
2018-02-06T05:49:18.446Z,48.77
2018-02-06T05:51:45.977Z,48.87
2018-02-06T05:54:14.265Z,44.20
2018-02-06T05:56:42.566Z,45.93
2018-02-06T05:59:10.064Z,48.73
2018-02-06T06:01:37.586Z,50.77
2018-02-06T06:04:05.124Z,48.87
2018-02-06T06:06:33.431Z,50.97
2018-02-06T06:09:00.958Z,42.97
2018-02-06T06:11:29.213Z,53.77
2018-02-06T06:13:56.706Z,47.63
2018-02-06T06:16:25.158Z,47.00
2018-02-06T06:18:52.678Z,45.53
2018-02-06T06:21:20.231Z,52.30
2018-02-06T06:23:47.757Z,47.00
2018-02-06T06:26:16.068Z,45.10
2018-02-06T06:28:43.607Z,54.30
2018-02-06T06:31:11.117Z,53.43
2018-02-06T06:33:38.628Z,51.67
2018-02-06T06:36:06.132Z,55.23
2018-02-06T06:38:34.429Z,56.17
2018-02-06T06:41:02.762Z,62.47
2018-02-06T06:43:30.250Z,54.33
2018-02-06T06:45:57.745Z,63.93
2018-02-06T06:48:25.260Z,58.73
2018-02-06T06:50:52.858Z,56.47
2018-02-06T06:53:21.148Z,65.93
2018-02-06T06:55:48.719Z,55.00
2018-02-06T06:58:16.229Z,57.53
2018-02-06T07:00:43.733Z,58.60
2018-02-06T07:03:11.254Z,51.20
2018-02-06T07:05:39.540Z,56.20
2018-02-06T07:08:07.849Z,52.17
2018-02-06T07:10:35.352Z,54.20
2018-02-06T07:13:02.862Z,51.80
2018-02-06T07:15:30.714Z,47.87
2018-02-06T07:17:59.038Z,53.47
2018-02-06T07:20:26.548Z,52.23
2018-02-06T07:22:54.880Z,46.50
2018-02-06T07:25:22.445Z,54.70
2018-02-06T07:27:50.005Z,59.33
2018-02-06T07:30:17.569Z,48.53
2018-02-06T07:32:45.137Z,53.40
2018-02-06T07:35:12.641Z,52.70
2018-02-06T07:37:40.168Z,49.80
2018-02-06T07:40:07.692Z,50.80
2018-02-06T07:42:35.253Z,54.57
2018-02-06T07:45:02.774Z,46.40
2018-02-06T07:47:30.313Z,56.80
2018-02-06T07:49:58.581Z,56.80
2018-02-06T07:52:26.105Z,55.60
2018-02-06T07:54:53.613Z,47.33
2018-02-06T07:57:21.923Z,53.17
2018-02-06T07:59:49.441Z,48.90
2018-02-06T08:02:17.754Z,53.13
2018-02-06T08:04:45.270Z,50.50
2018-02-06T08:07:12.782Z,49.00
2018-02-06T08:09:40.308Z,52.90
2018-02-06T08:12:07.854Z,54.07
2018-02-06T08:14:35.405Z,47.47
2018-02-06T08:17:02.910Z,48.60
2018-02-06T08:19:30.472Z,46.67
2018-02-06T08:21:58.020Z,52.67
2018-02-06T08:24:25.532Z,46.10
2018-02-06T08:26:53.057Z,46.93
2018-02-06T08:29:20.671Z,49.67
2018-02-06T08:31:49.019Z,46.60
2018-02-06T08:34:16.591Z,47.10
2018-02-06T08:36:44.169Z,45.47
2018-02-06T08:39:12.491Z,47.40
2018-02-06T08:41:40.086Z,46.50
2018-02-06T08:44:07.577Z,41.87
2018-02-06T08:46:35.141Z,48.00
2018-02-06T08:49:02.701Z,43.60
2018-02-06T08:51:30.217Z,49.20
2018-02-06T08:53:57.812Z,43.30
2018-02-06T08:56:26.202Z,41.73
2018-02-06T08:58:53.756Z,44.67
2018-02-06T09:01:21.298Z,42.17
2018-02-06T09:03:49.700Z,40.03
2018-02-06T09:06:17.283Z,38.97
2018-02-06T09:08:44.825Z,43.77
2018-02-06T09:11:12.384Z,41.47
2018-02-06T09:13:39.969Z,40.10
2018-02-06T09:16:07.500Z,39.03
2018-02-06T09:18:35.062Z,40.10
2018-02-06T09:21:02.576Z,39.17
2018-02-06T09:23:30.224Z,48.33
2018-02-06T09:25:57.764Z,61.60
2018-02-06T09:28:25.285Z,47.83
2018-02-06T09:30:53.657Z,47.73
2018-02-06T09:33:21.954Z,51.03
2018-02-06T09:35:49.520Z,51.97
2018-02-06T09:38:17.048Z,46.57
2018-02-06T09:40:51.183Z,53.23
2018-02-06T09:43:18.709Z,43.90
2018-02-06T09:45:46.237Z,46.17
2018-02-06T09:48:13.748Z,43.37
2018-02-06T09:50:42.112Z,44.97
2018-02-06T09:53:09.627Z,51.40
2018-02-06T09:55:37.186Z,41.27
2018-02-06T09:58:04.727Z,41.13
2018-02-06T10:00:32.268Z,38.13
2018-02-06T10:02:59.851Z,38.23
2018-02-06T10:05:27.385Z,37.40
2018-02-06T10:07:55.854Z,40.97
2018-02-06T10:10:23.645Z,40.77
2018-02-06T10:12:51.191Z,44.80
2018-02-06T10:15:18.737Z,43.10
2018-02-06T10:17:47.021Z,44.10
2018-02-06T10:20:15.409Z,41.47
2018-02-06T10:22:42.917Z,44.67
2018-02-06T10:25:10.541Z,44.97
2018-02-06T10:27:38.080Z,46.70
2018-02-06T10:30:06.352Z,42.37
2018-02-06T10:32:34.624Z,39.80
2018-02-06T10:35:02.177Z,42.30
2018-02-06T10:37:29.694Z,42.63
2018-02-06T10:39:57.213Z,42.07
2018-02-06T10:42:24.785Z,43.77
2018-02-06T10:44:53.080Z,44.90
2018-02-06T10:47:20.608Z,43.70
2018-02-06T10:49:48.960Z,48.60
2018-02-06T10:52:16.513Z,50.53
2018-02-06T10:54:44.043Z,46.07
2018-02-06T10:57:11.578Z,41.27
2018-02-06T10:59:39.092Z,53.57
2018-02-06T11:02:06.625Z,45.33
2018-02-06T11:04:34.183Z,46.00
2018-02-06T11:07:01.696Z,50.10
2018-02-06T11:09:29.988Z,50.63
2018-02-06T11:11:57.660Z,45.23
2018-02-06T11:14:25.223Z,44.53
2018-02-06T11:16:52.726Z,50.30
2018-02-06T11:19:20.258Z,47.33
2018-02-06T11:21:47.780Z,48.37
2018-02-06T11:24:15.387Z,50.13
2018-02-06T11:26:42.928Z,47.00
2018-02-06T11:29:10.455Z,43.87
2018-02-06T11:31:38.766Z,44.97
2018-02-06T11:34:06.297Z,48.33
2018-02-06T11:36:33.874Z,48.60
2018-02-06T11:39:01.409Z,42.70
2018-02-06T11:41:29.695Z,51.00
2018-02-06T11:43:57.223Z,48.87
2018-02-06T11:46:24.781Z,50.33
2018-02-06T11:48:52.306Z,52.97
2018-02-06T11:51:19.881Z,46.23
2018-02-06T11:53:47.454Z,48.27
2018-02-06T11:56:15.022Z,43.77
2018-02-06T11:58:42.569Z,45.33
2018-02-06T12:01:18.548Z,48.87
2018-02-06T12:03:46.078Z,49.30
2018-02-06T12:06:13.618Z,51.30
2018-02-06T12:08:41.161Z,46.90
2018-02-06T12:11:08.753Z,49.27
2018-02-06T12:13:36.271Z,48.80
2018-02-06T12:16:03.823Z,51.87
2018-02-06T12:18:32.271Z,46.67
2018-02-06T12:20:59.861Z,43.40
2018-02-06T12:23:28.155Z,51.53
2018-02-06T12:25:55.723Z,51.63
2018-02-06T12:28:23.244Z,48.33
2018-02-06T12:30:50.811Z,47.07
2018-02-06T12:33:19.103Z,48.33
2018-02-06T12:35:46.649Z,50.37
2018-02-06T12:38:14.974Z,48.40
2018-02-06T12:40:42.529Z,46.23
2018-02-06T12:43:10.055Z,49.83
2018-02-06T12:45:38.358Z,54.83
2018-02-06T12:48:05.923Z,54.13
2018-02-06T12:50:34.661Z,47.37
2018-02-06T12:53:02.978Z,49.20
2018-02-06T12:55:34.993Z,47.40
2018-02-06T12:58:02.632Z,47.53
2018-02-06T13:00:30.144Z,48.00
2018-02-06T13:02:57.697Z,57.77
2018-02-06T13:05:25.997Z,48.53
2018-02-06T13:07:53.543Z,43.87
2018-02-06T13:10:21.088Z,51.37
2018-02-06T13:12:49.369Z,62.80
2018-02-06T13:15:17.691Z,49.80
2018-02-06T13:17:45.220Z,54.30
2018-02-06T13:20:12.775Z,42.93
2018-02-06T13:22:40.341Z,50.00
2018-02-06T13:25:07.989Z,49.60
2018-02-06T13:27:35.575Z,49.03
2018-02-06T13:30:03.105Z,47.83
2018-02-06T13:32:30.666Z,49.10
2018-02-06T13:34:58.285Z,47.30
2018-02-06T13:37:25.818Z,51.97
2018-02-06T13:39:53.346Z,51.37
2018-02-06T13:42:20.872Z,56.93
2018-02-06T13:44:48.422Z,49.50
2018-02-06T13:47:16.085Z,48.23
2018-02-06T13:49:43.603Z,48.10
2018-02-06T13:52:11.139Z,50.13
2018-02-06T13:54:39.437Z,50.70
2018-02-06T13:57:06.976Z,49.47
2018-02-06T13:59:35.269Z,50.07
2018-02-06T14:02:02.834Z,46.70
2018-02-06T14:04:30.349Z,46.73
2018-02-06T14:06:57.890Z,49.00
2018-02-06T14:09:25.484Z,44.90
2018-02-06T14:11:53.772Z,44.30
2018-02-06T14:14:21.326Z,49.83
2018-02-06T14:16:49.625Z,48.73
2018-02-06T14:19:17.173Z,49.80
2018-02-06T14:21:44.709Z,43.23
2018-02-06T14:24:12.253Z,45.60
2018-02-06T14:26:39.777Z,47.43
2018-02-06T14:29:07.346Z,49.60
2018-02-06T14:31:34.876Z,53.60
2018-02-06T14:34:02.420Z,46.20
2018-02-06T14:36:30.778Z,47.67
2018-02-06T14:38:58.513Z,50.67
2018-02-06T14:41:26.061Z,43.43
2018-02-06T14:43:53.605Z,49.17
2018-02-06T14:46:21.172Z,43.10
2018-02-06T14:48:48.709Z,47.67
2018-02-06T14:51:16.285Z,50.03
2018-02-06T14:53:43.813Z,45.33
2018-02-06T14:56:12.133Z,45.87
2018-02-06T14:58:39.665Z,53.30
2018-02-06T15:01:07.252Z,49.50
2018-02-06T15:03:34.794Z,49.80
2018-02-06T15:06:02.337Z,49.70
2018-02-06T15:08:29.911Z,44.50
2018-02-06T15:10:57.444Z,48.73
2018-02-06T15:13:25.754Z,47.10
2018-02-06T15:15:53.308Z,49.97
2018-02-06T15:18:20.819Z,51.10
2018-02-06T15:20:48.576Z,50.03
2018-02-06T15:23:16.149Z,54.40
2018-02-06T15:25:43.698Z,47.97
2018-02-06T15:28:11.385Z,49.40
2018-02-06T15:30:39.677Z,53.93
2018-02-06T15:33:07.240Z,44.20
2018-02-06T15:35:34.778Z,44.90
2018-02-06T15:38:02.318Z,48.93
2018-02-06T15:40:31.023Z,57.87
2018-02-06T15:42:58.565Z,46.70
2018-02-06T15:45:26.116Z,44.90
2018-02-06T15:47:53.686Z,49.83
2018-02-06T15:50:21.229Z,45.10
2018-02-06T15:52:48.791Z,52.60
2018-02-06T15:55:16.332Z,44.73
2018-02-06T15:57:43.929Z,40.53
2018-02-06T16:00:11.481Z,48.47
2018-02-06T16:02:39.040Z,49.47
2018-02-06T16:05:06.812Z,50.73
2018-02-06T16:07:34.459Z,45.13
2018-02-06T16:10:02.145Z,41.73
2018-02-06T16:12:29.700Z,46.70
2018-02-06T16:14:57.250Z,55.10
2018-02-06T16:17:24.793Z,55.53
2018-02-06T16:19:52.332Z,56.80
2018-02-06T16:22:19.885Z,55.57
2018-02-06T16:24:47.405Z,48.63
2018-02-06T16:27:15.732Z,55.63
2018-02-06T16:29:43.265Z,53.90
2018-02-06T16:32:10.846Z,53.00
2018-02-06T16:34:38.389Z,59.13
2018-02-06T16:37:06.158Z,55.97
2018-02-06T16:39:33.684Z,54.10
2018-02-06T16:42:01.273Z,60.93
2018-02-06T16:44:28.795Z,54.30
2018-02-06T16:46:56.362Z,53.93
2018-02-06T16:49:23.920Z,59.83
2018-02-06T16:51:51.481Z,56.93
2018-02-06T16:54:19.873Z,59.67
2018-02-06T16:56:47.404Z,54.73
2018-02-06T16:59:15.105Z,57.63
2018-02-06T17:01:43.544Z,60.20
2018-02-06T17:04:11.078Z,61.30
2018-02-06T17:06:38.792Z,57.77
2018-02-06T17:09:07.053Z,59.63
2018-02-06T17:11:34.933Z,56.97
2018-02-06T17:14:03.273Z,55.53
2018-02-06T17:16:30.776Z,55.67
2018-02-06T17:18:59.386Z,66.93
2018-02-06T17:21:26.840Z,54.20
2018-02-06T17:26:33.998Z,61.97
2018-02-06T17:29:01.559Z,58.37
2018-02-06T17:31:29.095Z,56.40
2018-02-06T17:33:56.654Z,56.57
2018-02-06T17:36:24.803Z,60.83
2018-02-06T17:38:52.439Z,56.60
2018-02-06T17:41:20.103Z,58.17
2018-02-06T17:43:47.644Z,52.23
2018-02-06T17:46:15.235Z,62.73
2018-02-06T17:48:42.771Z,57.00
2018-02-06T17:51:11.070Z,59.73
2018-02-06T17:53:38.626Z,49.37
2018-02-06T17:56:06.177Z,56.77
2018-02-06T17:58:34.420Z,69.83
2018-02-06T18:01:01.890Z,69.37
2018-02-06T18:03:29.815Z,72.53
2018-02-06T18:05:58.818Z,75.73
2018-02-06T18:08:26.365Z,73.80
2018-02-06T18:10:53.912Z,66.43
2018-02-06T18:13:21.469Z,61.67
2018-02-06T18:15:49.009Z,69.73
2018-02-06T18:18:17.319Z,61.93
2018-02-06T18:20:44.829Z,62.80
2018-02-06T18:23:12.379Z,54.73
2018-02-06T18:25:39.956Z,60.37
2018-02-06T18:28:07.521Z,59.07
2018-02-06T18:30:35.075Z,71.27
2018-02-06T18:33:02.600Z,79.10
2018-02-06T18:35:30.230Z,64.77
2018-02-06T18:37:57.755Z,66.10
2018-02-06T18:40:26.056Z,64.63
2018-02-06T18:42:53.678Z,57.43
2018-02-06T18:45:21.236Z,69.97
2018-02-06T18:47:48.788Z,63.27
2018-02-06T18:50:16.317Z,65.03
2018-02-06T18:52:43.943Z,61.97
2018-02-06T18:55:11.464Z,59.17
2018-02-06T18:57:38.974Z,66.97
2018-02-06T19:00:06.527Z,65.30
2018-02-06T19:02:34.118Z,69.27
2018-02-06T19:05:01.681Z,73.00
2018-02-06T19:07:29.222Z,66.27
2018-02-06T19:09:56.830Z,63.40
2018-02-06T19:12:24.359Z,59.60
2018-02-06T19:14:52.105Z,71.67
2018-02-06T19:17:19.621Z,65.13
2018-02-06T19:19:47.133Z,72.70
2018-02-06T19:22:14.687Z,66.20
2018-02-06T19:24:42.246Z,65.60
2018-02-06T19:27:09.753Z,66.03
2018-02-06T19:29:37.350Z,73.20
2018-02-06T19:32:04.880Z,67.47
2018-02-06T19:34:32.435Z,66.90
2018-02-06T19:37:00.020Z,62.67
2018-02-06T19:39:27.525Z,62.30
2018-02-06T19:41:55.041Z,71.43
2018-02-06T19:44:23.382Z,72.20
2018-02-06T19:46:50.938Z,69.30
2018-02-06T19:49:18.475Z,72.67
2018-02-06T19:51:46.058Z,66.73
2018-02-06T19:54:13.554Z,60.83
2018-02-06T19:56:41.943Z,63.93
2018-02-06T19:59:09.453Z,66.60
2018-02-06T20:01:36.949Z,67.00
2018-02-06T20:04:05.239Z,67.60
2018-02-06T20:06:32.762Z,69.03
2018-02-06T20:09:00.312Z,56.73
2018-02-06T20:11:27.790Z,60.23
2018-02-06T20:13:56.084Z,65.63
2018-02-06T20:16:23.601Z,68.30
2018-02-06T20:18:51.127Z,68.13
2018-02-06T20:21:18.616Z,62.43
2018-02-06T20:23:46.169Z,59.23
2018-02-06T20:26:13.724Z,59.83
2018-02-06T20:28:41.246Z,59.40
2018-02-06T20:31:08.778Z,60.67
2018-02-06T20:33:37.134Z,68.90
2018-02-06T20:36:04.691Z,66.73
2018-02-06T20:38:32.236Z,60.63
2018-02-06T20:40:59.747Z,62.97
2018-02-06T20:43:27.321Z,61.93
2018-02-06T20:45:54.842Z,57.83
2018-02-06T20:48:22.377Z,57.20
2018-02-06T20:50:49.985Z,63.83
2018-02-06T20:53:18.275Z,52.23
2018-02-06T20:55:45.778Z,58.20
2018-02-06T20:58:13.313Z,55.33
2018-02-06T21:00:40.908Z,53.30
2018-02-06T21:03:08.434Z,62.30
2018-02-06T21:05:35.928Z,58.13
2018-02-06T21:08:03.492Z,56.97
2018-02-06T21:10:31.030Z,58.63
2018-02-06T21:12:58.537Z,55.03
2018-02-06T21:15:26.158Z,60.93
2018-02-06T21:17:53.677Z,54.27
2018-02-06T21:20:21.215Z,60.43
2018-02-06T21:22:48.824Z,57.90
2018-02-06T21:25:16.406Z,60.20
2018-02-06T21:27:43.928Z,57.20
2018-02-06T21:30:11.418Z,54.53
2018-02-06T21:32:38.930Z,58.00
2018-02-06T21:35:06.445Z,54.90
2018-02-06T21:37:33.981Z,53.20
2018-02-06T21:40:01.564Z,54.30
2018-02-06T21:42:29.891Z,62.33
2018-02-06T21:44:57.400Z,53.90
2018-02-06T21:47:25.745Z,61.10
2018-02-06T21:49:53.287Z,58.30
2018-02-06T21:52:20.868Z,58.40
2018-02-06T21:54:48.560Z,58.63
2018-02-06T21:57:16.069Z,61.20
2018-02-06T21:59:43.598Z,54.43
2018-02-06T22:02:11.882Z,57.50
2018-02-06T22:04:39.423Z,52.77
2018-02-06T22:07:07.728Z,54.87
2018-02-06T22:09:35.236Z,64.93
2018-02-06T22:12:02.763Z,51.73
2018-02-06T22:14:30.288Z,55.73
2018-02-06T22:16:58.591Z,59.53
2018-02-06T22:19:26.171Z,57.50
2018-02-06T22:21:53.686Z,58.63
2018-02-06T22:24:21.205Z,60.60
2018-02-06T22:26:48.729Z,58.10
2018-02-06T22:29:16.267Z,66.27
2018-02-06T22:31:44.559Z,62.57
2018-02-06T22:34:12.099Z,57.87
2018-02-06T22:36:40.384Z,55.93
2018-02-06T22:39:07.918Z,58.57
2018-02-06T22:41:36.234Z,58.40
2018-02-06T22:44:03.830Z,58.80
2018-02-06T22:46:31.271Z,57.97
2018-02-06T22:48:58.819Z,52.53
2018-02-06T22:51:26.362Z,63.33
2018-02-06T22:53:53.878Z,53.23
2018-02-06T22:56:21.420Z,60.87
2018-02-06T22:58:48.937Z,64.00
2018-02-06T23:01:16.451Z,59.30
2018-02-06T23:03:44.005Z,55.90
2018-02-06T23:06:11.552Z,66.77
2018-02-06T23:08:39.110Z,59.53
2018-02-06T23:11:06.661Z,66.50
2018-02-06T23:13:34.183Z,69.27
2018-02-06T23:16:02.469Z,58.07
2018-02-06T23:18:30.004Z,55.33
2018-02-06T23:20:58.291Z,61.70
2018-02-06T23:23:26.596Z,53.37
2018-02-06T23:25:54.137Z,59.80
2018-02-06T23:28:21.669Z,60.43
2018-02-06T23:30:49.997Z,57.13
2018-02-06T23:33:17.539Z,57.03
2018-02-06T23:35:45.098Z,48.90
2018-02-06T23:38:12.631Z,54.27
2018-02-06T23:40:40.915Z,51.77
2018-02-06T23:43:09.202Z,55.83
2018-02-06T23:45:37.487Z,54.30
2018-02-06T23:48:04.977Z,55.00
2018-02-06T23:50:32.488Z,50.33
2018-02-06T23:53:00.741Z,60.27
2018-02-06T23:55:28.244Z,70.27
2018-02-06T23:57:55.752Z,54.53
